Time;durP1;ratioP1;P1;durP2;ratioP2;P2;SDS_P1;SDS_P2;PMS_P1;PMS_P2;Temp;Humidity;BMP_temperature;BMP_pressure;BME280_temperature;BME280_humidity;BME280_pressure;Samples;Min_cycle;Max_cycle;Signal;HPM_P1;HPM_P2
2021/03/30 00:01:06;;;;;;;11.45;5.95;;;11.40;60.60;;;11.98;49.72;102012.69;5096905;28;20047;-80
2021/03/30 00:03:33;;;;;;;16.02;6.55;;;11.30;60.80;;;11.91;49.66;102016.03;5098553;28;20075;-80
2021/03/30 00:05:59;;;;;;;13.98;5.75;;;11.20;61.60;;;11.90;49.69;102018.94;5099180;28;20071;-80
2021/03/30 00:08:26;;;;;;;10.77;6.00;;;11.20;61.70;;;11.86;49.97;102006.56;5098357;28;20518;-80
2021/03/30 00:10:54;;;;;;;14.85;7.25;;;11.10;62.00;;;11.81;49.96;102008.94;5096997;28;20052;-80
2021/03/30 00:13:22;;;;;;;15.13;6.65;;;11.10;62.10;;;11.79;50.58;102016.41;5098523;28;20044;-80
2021/03/30 00:15:49;;;;;;;10.63;6.00;;;11.00;62.80;;;11.70;50.77;102023.63;5098745;28;20055;-80
2021/03/30 00:18:16;;;;;;;14.35;5.95;;;10.90;63.10;;;11.64;50.84;102019.66;5098372;28;20052;-80
2021/03/30 00:20:43;;;;;;;11.13;5.45;;;10.80;63.50;;;11.55;51.34;102021.44;5098515;28;20115;-80
2021/03/30 00:23:10;;;;;;;11.23;6.00;;;10.70;64.00;;;11.52;50.98;102015.47;5097706;28;20043;-80
2021/03/30 00:25:37;;;;;;;12.65;6.03;;;10.70;63.80;;;11.46;51.17;102016.06;5098509;28;20576;-80
2021/03/30 00:28:05;;;;;;;10.32;5.45;;;10.60;64.50;;;11.38;51.24;102018.69;5098477;28;20408;-80
2021/03/30 00:30:33;;;;;;;12.38;5.82;;;10.50;63.70;;;11.29;51.15;102023.19;5097404;28;20519;-80
2021/03/30 00:33:00;;;;;;;13.23;5.95;;;10.50;63.80;;;11.26;51.89;102027.06;5097737;28;20091;-80
2021/03/30 00:35:27;;;;;;;11.02;5.60;;;10.40;64.90;;;11.21;51.99;102017.63;5096825;28;20423;-80
2021/03/30 00:37:54;;;;;;;12.35;5.57;;;10.40;65.00;;;11.22;52.38;102020.22;5098104;28;20044;-80
2021/03/30 00:40:21;;;;;;;14.65;5.95;;;10.40;65.60;;;11.18;52.62;102016.09;5098289;28;20098;-80
2021/03/30 00:42:48;;;;;;;14.55;5.70;;;10.30;65.80;;;11.16;52.92;102015.38;5097519;28;20044;-80
2021/03/30 00:45:15;;;;;;;12.68;5.60;;;10.30;66.40;;;11.07;53.31;102011.69;5098084;28;20097;-80
2021/03/30 00:47:46;;;;;;;16.92;6.07;;;10.20;66.90;;;11.02;53.37;102010.41;5097431;28;20044;-80
2021/03/30 00:50:17;;;;;;;12.35;5.43;;;10.10;67.00;;;10.94;53.50;102016.63;5095970;28;20067;-80
2021/03/30 00:52:46;;;;;;;11.57;5.95;;;10.00;67.30;;;10.94;53.65;102016.63;5095579;28;20048;-80
2021/03/30 00:55:41;;;;;;;12.75;5.88;;;10.00;67.70;;;10.93;53.60;102018.50;5088269;28;20079;-80
2021/03/30 00:58:09;;;;;;;10.65;5.55;;;10.00;67.80;;;10.82;53.32;102013.22;5097864;28;20048;-80
2021/03/30 01:00:36;;;;;;;14.40;5.90;;;9.90;66.90;;;10.83;53.69;102009.50;5097499;28;20044;-80
2021/03/30 01:03:04;;;;;;;12.80;5.72;;;9.90;68.00;;;10.78;54.35;102008.25;5097081;28;20130;-80
2021/03/30 01:05:31;;;;;;;11.65;5.72;;;9.80;68.50;;;10.67;53.90;102014.72;5097390;28;20064;-80
2021/03/30 01:08:11;;;;;;;13.10;5.93;;;9.80;67.70;;;10.65;54.63;102016.75;5097508;28;20056;-80
2021/03/30 01:10:51;;;;;;;13.50;5.20;;;9.70;69.10;;;10.57;54.30;102020.22;5097321;28;20052;-80
2021/03/30 01:13:55;;;;;;;14.35;5.75;;;9.70;68.80;;;10.57;54.33;102012.88;5097697;28;20121;-79
2021/03/30 01:16:30;;;;;;;13.32;5.55;;;9.60;68.90;;;10.60;54.73;102013.59;5097221;28;20040;-80
2021/03/30 01:19:12;;;;;;;11.40;5.40;;;9.60;69.60;;;10.62;54.80;102014.31;5097032;28;20052;-80
2021/03/30 01:22:27;;;;;;;11.32;5.95;;;9.70;69.10;;;10.53;55.17;102022.34;5097558;28;20067;-80
2021/03/30 01:24:59;;;;;;;12.43;5.22;;;9.60;69.70;;;10.54;55.36;102026.78;5038599;28;20057;-80
2021/03/30 01:27:37;;;;;;;19.88;5.85;;;9.60;69.90;;;10.46;55.76;102023.94;5097432;28;20040;-80
2021/03/30 01:30:08;;;;;;;11.57;5.55;;;9.70;70.00;;;10.48;55.89;102026.53;5096549;28;20142;-80
2021/03/30 01:32:39;;;;;;;11.27;5.15;;;9.60;70.50;;;10.46;56.42;102023.94;5096558;28;20051;-80
2021/03/30 01:35:10;;;;;;;;;;;9.50;71.00;;;10.36;56.38;102023.97;5096045;28;20052;-80
2021/03/30 01:37:43;;;;;;;11.43;5.18;;;9.50;71.00;;;10.31;56.39;102025.41;5097042;28;19924;-80
2021/03/30 01:40:13;;;;;;;16.38;5.35;;;9.30;71.30;;;10.26;56.71;102016.78;5097012;28;20055;-80
2021/03/30 01:42:40;;;;;;;10.35;5.15;;;9.30;71.60;;;10.22;56.96;102018.09;5096675;28;20047;-80
2021/03/30 01:45:10;;;;;;;11.65;5.63;;;9.30;72.00;;;10.18;57.09;102023.84;5096533;28;20048;-80
2021/03/30 01:47:39;;;;;;;15.85;5.53;;;9.20;72.00;;;10.23;57.26;102017.09;5095299;28;20044;-80
2021/03/30 01:50:07;;;;;;;12.77;6.03;;;9.20;72.60;;;10.17;57.32;102015.81;5097093;28;20485;-80
2021/03/30 01:52:35;;;;;;;14.60;5.75;;;9.20;72.50;;;10.14;57.41;102013.38;5096639;28;20485;-80
2021/03/30 01:55:03;;;;;;;11.27;5.82;;;9.10;72.90;;;10.02;57.40;102011.81;5095982;28;20404;-80
2021/03/30 01:57:32;;;;;;;14.18;5.60;;;9.10;72.70;;;9.99;57.72;102012.94;5096349;28;20048;-80
2021/03/30 02:00:00;;;;;;;14.90;5.60;;;9.00;73.10;;;9.94;57.67;102010.66;5096095;28;20043;-80
2021/03/30 02:02:28;;;;;;;10.88;5.30;;;8.90;73.10;;;9.96;57.92;102016.81;5095101;28;20044;-80
2021/03/30 02:04:56;;;;;;;14.70;6.00;;;8.90;73.50;;;9.92;58.08;102011.81;5096827;28;20082;-80
2021/03/30 02:07:24;;;;;;;17.88;6.43;;;8.90;73.30;;;9.92;58.19;102019.97;5096401;28;20048;-80
2021/03/30 02:09:56;;;;;;;11.63;5.57;;;9.00;73.30;;;9.91;57.94;102016.38;5096471;28;20064;-80
2021/03/30 02:12:29;;;;;;;10.73;5.55;;;9.00;73.40;;;9.87;57.96;102016.81;5096726;28;20132;-80
2021/03/30 02:14:56;;;;;;;14.20;6.45;;;9.00;73.20;;;9.91;58.44;102012.81;5096809;28;20052;-80
2021/03/30 02:17:29;;;;;;;10.88;5.97;;;9.00;73.50;;;9.94;58.34;102017.97;5095740;28;20054;-80
2021/03/30 02:20:10;;;;;;;12.65;6.55;;;9.00;73.60;;;9.91;58.30;102012.81;5096190;28;20063;-80
2021/03/30 02:22:46;;;;;;;12.02;6.45;;;9.10;73.30;;;9.88;58.20;102013.09;5095334;28;20060;-80
2021/03/30 02:25:14;;;;;;;18.15;7.82;;;9.00;73.40;;;9.82;58.74;102011.78;5096528;28;20488;-80
2021/03/30 02:27:42;;;;;;;13.95;6.07;;;8.90;73.70;;;9.79;58.61;102021.09;5095875;28;20092;-80
2021/03/30 02:30:15;;;;;;;12.32;6.28;;;8.90;74.00;;;9.77;58.80;102016.81;5096159;28;20040;-80
2021/03/30 02:32:44;;;;;;;12.77;6.05;;;8.90;73.80;;;9.73;58.80;102015.41;5092935;28;20044;-80
2021/03/30 02:35:14;;;;;;;12.25;5.97;;;8.80;74.30;;;9.68;58.87;102021.25;5096229;28;20123;-80
2021/03/30 02:37:42;;;;;;;11.07;5.82;;;8.80;74.20;;;9.63;59.21;102009.94;5096180;28;20063;-80
2021/03/30 02:40:15;;;;;;;12.85;6.10;;;8.70;74.70;;;9.63;59.00;102001.78;5095876;28;20040;-80
2021/03/30 02:42:45;;;;;;;9.80;5.72;;;8.70;75.10;;;9.53;59.23;102009.91;5095593;28;20663;-80
2021/03/30 02:45:15;;;;;;;12.07;5.93;;;8.60;75.10;;;9.50;59.83;102006.63;5096323;28;20073;-80
2021/03/30 02:47:44;;;;;;;11.85;6.13;;;8.50;75.60;;;9.44;59.93;102009.91;5096881;28;20051;-80
2021/03/30 02:50:13;;;;;;;11.63;6.00;;;8.40;75.60;;;9.42;59.46;102014.63;5095171;28;20101;-80
2021/03/30 02:52:41;;;;;;;12.30;6.50;;;8.40;75.80;;;9.42;59.46;102011.91;5095327;28;20416;-80
2021/03/30 02:55:09;;;;;;;14.20;6.07;;;8.50;75.90;;;9.37;59.51;102013.19;5094520;28;20036;-80
2021/03/30 02:57:39;;;;;;;10.35;5.82;;;8.40;75.80;;;9.35;60.21;102015.19;5094573;28;20097;-80
2021/03/30 03:00:11;;;;;;;12.02;5.95;;;8.30;76.10;;;9.34;59.82;102005.31;5096047;28;20041;-80
2021/03/30 03:02:39;;;;;;;13.38;6.70;;;8.30;76.10;;;9.33;60.24;102005.47;5094324;28;20488;-80
2021/03/30 03:05:09;;;;;;;9.88;5.70;;;8.30;76.80;;;9.29;60.33;102007.59;5096063;28;20508;-80
2021/03/30 03:07:38;;;;;;;13.00;6.05;;;8.20;76.50;;;9.20;59.93;102011.16;5094726;28;20097;-80
2021/03/30 03:10:09;;;;;;;11.25;6.03;;;8.20;76.50;;;9.12;59.91;102011.84;5095377;28;20036;-80
2021/03/30 03:12:38;;;;;;;12.73;6.93;;;8.10;76.80;;;9.16;59.94;102018.72;5095839;28;20075;-80
2021/03/30 03:15:11;;;;;;;14.05;6.80;;;8.10;76.80;;;9.17;60.13;102019.56;5098328;28;20395;-80
2021/03/30 03:17:40;;;;;;;15.02;6.38;;;8.10;76.60;;;9.12;60.57;102016.41;5099086;28;20044;-80
2021/03/30 03:20:10;;;;;;;14.98;7.95;;;8.20;76.60;;;9.13;60.75;102020.84;5099275;28;20044;-80
2021/03/30 03:22:37;;;;;;;13.95;6.60;;;8.10;76.70;;;9.05;60.73;102016.09;5099663;28;20056;-80
2021/03/30 03:25:08;;;;;;;12.85;6.10;;;8.10;77.10;;;9.00;60.53;102013.81;5099824;28;20052;-79
2021/03/30 03:27:35;;;;;;;15.10;6.75;;;8.00;77.30;;;9.02;60.99;102016.38;5099525;28;20055;-80
2021/03/30 03:30:06;;;;;;;11.00;6.32;;;7.90;77.60;;;8.96;60.85;102017.78;5097471;28;20044;-80
2021/03/30 03:32:33;;;;;;;11.98;6.30;;;7.90;77.40;;;8.96;60.43;102017.78;5098961;28;20123;-80
2021/03/30 03:35:01;;;;;;;14.23;5.78;;;7.90;77.70;;;8.94;60.96;102014.34;5098969;28;20094;-80
2021/03/30 03:37:29;;;;;;;18.77;6.43;;;7.90;77.40;;;8.93;60.81;102018.06;5099250;28;20403;-80
2021/03/30 03:39:56;;;;;;;15.27;6.60;;;7.90;77.80;;;8.94;60.98;102017.06;5099291;28;20735;-80
2021/03/30 03:42:22;;;;;;;11.10;6.40;;;7.90;77.50;;;8.91;61.10;102020.06;5099125;28;20036;-80
2021/03/30 03:44:49;;;;;;;13.82;7.07;;;7.90;77.50;;;8.92;60.76;102016.34;5098568;28;20076;-80
2021/03/30 03:47:22;;;;;;;20.35;7.40;;;7.90;77.40;;;8.91;60.78;102013.75;5098960;28;20074;-80
2021/03/30 03:49:49;;;;;;;15.95;7.35;;;8.00;77.60;;;8.89;60.76;102005.78;5098454;28;20045;-80
2021/03/30 03:52:17;;;;;;;13.45;7.35;;;7.90;77.30;;;8.89;61.18;102011.19;5098931;28;20123;-80
2021/03/30 03:54:45;;;;;;;14.35;7.00;;;7.90;77.40;;;8.85;61.27;102015.16;5098630;28;20040;-80
2021/03/30 03:57:19;;;;;;;16.08;7.20;;;7.80;77.80;;;8.82;61.21;102020.03;5098911;28;20527;-80
2021/03/30 03:59:47;;;;;;;15.15;6.97;;;7.70;77.60;;;8.77;60.96;102015.84;5098208;28;20044;-80
2021/03/30 04:02:18;;;;;;;16.70;7.15;;;7.70;77.90;;;8.75;61.39;102014.25;5096670;28;20052;-80
2021/03/30 04:04:51;;;;;;;15.38;6.43;;;7.70;78.00;;;8.69;61.17;102012.09;5098592;28;20048;-79
2021/03/30 04:07:22;;;;;;;13.32;7.10;;;7.70;78.00;;;8.66;61.36;102009.66;5097619;28;20380;-80
2021/03/30 04:09:52;;;;;;;14.93;6.97;;;7.60;77.90;;;8.59;61.23;102010.19;5098763;28;20044;-80
2021/03/30 04:12:21;;;;;;;13.10;6.77;;;7.60;78.00;;;8.57;61.03;102012.19;5098456;28;20047;-80
2021/03/30 04:14:48;;;;;;;14.95;7.22;;;7.50;78.30;;;8.56;61.59;102018.59;5098408;28;20339;-80
2021/03/30 04:17:17;;;;;;;13.77;7.28;;;7.50;78.70;;;8.56;61.42;102025.88;5097794;28;20048;-80
2021/03/30 04:19:45;;;;;;;14.68;7.32;;;7.40;78.80;;;8.51;61.39;102026.28;5097895;28;20051;-80
2021/03/30 04:22:13;;;;;;;12.30;7.15;;;7.40;78.50;;;8.49;61.48;102022.84;5098765;28;20048;-80
2021/03/30 04:24:40;;;;;;;14.80;6.35;;;7.40;78.50;;;8.46;61.95;102030.41;5098225;28;20564;-80
2021/03/30 04:27:11;;;;;;;17.80;7.55;;;7.40;78.70;;;8.50;61.93;102026.41;5097551;28;20056;-80
2021/03/30 04:29:38;;;;;;;15.88;7.40;;;7.60;79.20;;;8.48;61.15;102023.84;5098471;28;20055;-80
2021/03/30 04:32:07;;;;;;;24.35;8.15;;;7.40;78.80;;;8.48;61.85;102021.13;5096742;28;20048;-80
2021/03/30 04:34:34;;;;;;;12.57;6.80;;;7.40;79.10;;;8.45;61.43;102031.38;5097581;28;20123;-80
2021/03/30 04:37:01;;;;;;;11.80;6.68;;;7.30;79.30;;;8.38;61.88;102028.31;5096611;28;20070;-79
2021/03/30 04:39:28;;;;;;;15.88;7.13;;;7.20;79.40;;;8.31;61.51;102029.84;5098039;28;20055;-79
2021/03/30 04:41:54;;;;;;;15.40;6.82;;;7.20;79.50;;;8.28;62.14;102032.81;5097239;28;20060;-80
2021/03/30 04:44:22;;;;;;;13.70;7.45;;;7.20;79.60;;;8.31;62.19;102037.97;5097751;28;20043;-81
2021/03/30 04:46:49;;;;;;;16.88;7.60;;;7.20;79.70;;;8.22;62.07;102028.75;5096484;28;20393;-80
2021/03/30 04:49:16;;;;;;;12.98;8.18;;;7.10;79.60;;;8.21;62.50;102027.06;5097287;28;20396;-80
2021/03/30 04:51:42;;;;;;;12.88;6.70;;;7.10;79.80;;;8.23;62.63;102031.34;5096232;28;20048;-79
2021/03/30 04:54:09;;;;;;;15.50;7.80;;;7.10;79.90;;;8.21;62.74;102033.34;5096959;28;20047;-80
2021/03/30 04:56:37;;;;;;;14.27;7.00;;;7.10;80.00;;;8.20;62.65;102034.31;5097359;28;20101;-80
2021/03/30 04:59:04;;;;;;;14.88;7.50;;;7.00;80.00;;;8.14;62.36;102036.72;5097649;28;20085;-80
2021/03/30 05:01:31;;;;;;;13.02;6.70;;;7.00;80.00;;;8.14;62.48;102042.13;5096091;28;20412;-80
2021/03/30 05:03:58;;;;;;;17.25;7.82;;;7.00;80.30;;;8.10;62.83;102041.53;5097158;28;20055;-80
2021/03/30 05:06:25;;;;;;;13.80;7.10;;;7.00;80.20;;;8.11;62.30;102045.97;5095745;28;20052;-79
2021/03/30 05:08:52;;;;;;;14.60;7.30;;;7.00;80.50;;;8.13;62.37;102046.72;5097550;28;20378;-84
2021/03/30 05:11:18;;;;;;;15.70;6.78;;;7.00;80.30;;;8.11;62.72;102048.69;5100121;28;20036;-84
2021/03/30 05:13:45;;;;;;;15.48;7.95;;;7.00;80.60;;;8.09;62.29;102061.53;5099283;28;20044;-84
2021/03/30 05:16:12;;;;;;;15.13;6.70;;;6.90;80.60;;;8.05;62.52;102060.03;5096496;28;20047;-83
2021/03/30 05:18:41;;;;;;;13.15;7.20;;;6.90;80.50;;;8.03;62.26;102056.59;5098232;28;20496;-83
2021/03/30 05:21:08;;;;;;;13.90;7.22;;;6.90;80.70;;;8.04;63.21;102058.31;5100165;28;20305;-83
2021/03/30 05:23:35;;;;;;;14.93;7.28;;;6.90;80.60;;;8.00;62.73;102051.44;5100035;28;20055;-83
2021/03/30 05:26:02;;;;;;;13.18;6.53;;;6.90;80.50;;;7.99;63.17;102055.13;5099119;28;20052;-83
2021/03/30 05:28:28;;;;;;;13.93;7.00;;;6.90;80.50;;;7.96;62.46;102060.84;5100014;28;20051;-83
2021/03/30 05:30:55;;;;;;;13.88;6.30;;;6.90;80.30;;;7.93;62.79;102061.94;5099979;28;20582;-83
2021/03/30 05:33:22;;;;;;;14.70;7.78;;;6.90;80.30;;;7.95;62.92;102069.94;5099326;28;20047;-83
2021/03/30 05:35:50;;;;;;;16.77;7.18;;;6.90;80.50;;;7.89;63.14;102070.47;5097882;28;20068;-83
2021/03/30 05:38:16;;;;;;;12.00;7.38;;;6.90;80.60;;;7.86;63.65;102068.84;5099452;28;20065;-83
2021/03/30 05:40:43;;;;;;;12.95;6.80;;;6.90;81.00;;;7.82;63.49;102065.56;5099291;28;20032;-84
2021/03/30 05:43:11;;;;;;;13.77;6.93;;;6.90;80.90;;;7.81;63.61;102069.25;5099279;28;20162;-83
2021/03/30 05:45:38;;;;;;;14.57;7.22;;;6.90;81.10;;;7.79;63.57;102063.09;5100456;28;20428;-83
2021/03/30 05:48:10;;;;;;;15.10;7.00;;;6.90;81.10;;;7.80;63.76;102072.94;5098621;28;20609;-84
2021/03/30 05:50:37;;;;;;;17.60;7.28;;;6.90;81.30;;;7.82;64.58;102076.41;5095410;28;20044;-81
2021/03/30 05:53:09;;;;;;;13.30;7.15;;;6.90;81.30;;;7.86;64.00;102084.25;5096478;28;20101;-81
2021/03/30 05:55:38;;;;;;;16.80;7.90;;;7.00;81.40;;;7.94;64.00;102081.75;5096591;28;20044;-81
2021/03/30 05:58:07;;;;;;;13.88;7.15;;;7.10;81.10;;;7.97;63.77;102084.22;5096055;28;20047;-82
2021/03/30 06:00:36;;;;;;;16.58;8.38;;;7.30;81.10;;;8.00;64.19;102086.69;5096935;28;20084;-80
2021/03/30 06:03:05;;;;;;;17.60;7.95;;;7.20;80.60;;;8.03;64.03;102086.41;5095277;28;20338;-80
2021/03/30 06:05:33;;;;;;;14.73;7.40;;;7.30;80.60;;;8.07;64.53;102081.59;5096063;28;20492;-81
2021/03/30 06:08:03;;;;;;;15.88;8.30;;;7.40;80.70;;;8.15;64.40;102088.09;5095560;28;20048;-80
2021/03/30 06:10:32;;;;;;;18.13;9.07;;;7.40;80.60;;;8.17;63.68;102091.53;5095824;28;20048;-80
2021/03/30 06:13:02;;;;;;;16.00;7.22;;;7.60;79.80;;;8.19;64.42;102088.72;5097804;28;20659;-81
2021/03/30 06:15:30;;;;;;;14.25;6.32;;;7.60;80.40;;;8.25;64.50;102087.34;5099086;28;20040;-81
2021/03/30 06:17:59;;;;;;;15.70;7.55;;;7.70;80.20;;;8.25;64.37;102095.47;5098067;28;20524;-81
2021/03/30 06:20:29;;;;;;;12.98;6.45;;;7.70;80.00;;;8.26;64.60;102098.03;5097540;28;20040;-81
2021/03/30 06:22:59;;;;;;;17.53;8.13;;;7.80;79.50;;;8.29;64.78;102102.34;5097740;28;20040;-80
2021/03/30 06:25:43;;;;;;;17.98;8.40;;;7.90;79.80;;;8.39;64.35;102100.56;5097367;28;20312;-81
2021/03/30 06:28:16;;;;;;;16.55;7.97;;;8.10;79.20;;;8.44;64.49;102106.50;5097788;28;20059;-81
2021/03/30 06:31:03;;;;;;;20.95;8.40;;;8.10;79.10;;;8.50;64.33;102100.53;5097861;28;20032;-81
2021/03/30 06:33:32;;;;;;;21.90;8.55;;;8.20;78.80;;;8.56;64.78;102097.28;5097636;28;20075;-81
2021/03/30 06:36:29;;;;;;;23.65;9.65;;;8.40;78.30;;;8.60;64.11;102104.19;5097431;28;20041;-81
2021/03/30 06:39:01;;;;;;;20.85;9.57;;;8.50;77.70;;;8.69;64.05;102104.38;5063567;28;20060;-82
2021/03/30 06:41:41;;;;;;;30.25;10.13;;;8.60;77.40;;;8.78;63.95;102106.31;5097908;28;20044;-82
2021/03/30 06:44:27;;;;;;;24.05;10.25;;;8.80;77.00;;;8.89;63.52;102108.94;5095450;28;20044;-83
2021/03/30 06:46:59;;;;;;;22.92;10.77;;;8.90;76.40;;;8.95;63.32;102102.97;5097240;28;20407;-81
2021/03/30 06:49:29;;;;;;;28.67;9.48;;;9.00;75.70;;;9.05;63.06;102104.88;5098757;28;20103;-81
2021/03/30 06:51:58;;;;;;;34.50;10.00;;;9.20;75.00;;;9.10;62.28;102105.31;5096352;28;20473;-81
2021/03/30 06:54:25;;;;;;;24.60;10.10;;;9.40;74.30;;;9.17;63.13;102109.19;5100476;28;20036;-82
2021/03/30 06:56:55;;;;;;;20.73;10.27;;;9.50;75.00;;;9.24;63.01;102107.66;5100676;28;20062;-83
2021/03/30 06:59:24;;;;;;;24.33;10.00;;;9.60;74.40;;;9.32;63.14;102104.25;5100480;28;20068;-82
2021/03/30 07:01:55;;;;;;;35.15;11.32;;;9.70;74.30;;;9.38;63.09;102110.00;5097393;28;20500;-82
2021/03/30 07:04:22;;;;;;;23.73;10.93;;;9.90;73.50;;;9.45;62.94;102112.19;5099987;28;20055;-81
2021/03/30 07:06:51;;;;;;;31.33;11.57;;;10.00;73.30;;;9.52;62.60;102116.03;5098831;28;20052;-81
2021/03/30 07:09:19;;;;;;;29.17;11.00;;;10.10;73.10;;;9.57;62.63;102114.63;5096856;28;20511;-81
2021/03/30 07:11:46;;;;;;;25.25;11.90;;;10.20;72.80;;;9.65;62.26;102111.22;5092100;28;20493;-81
2021/03/30 07:14:14;;;;;;;23.25;10.52;;;10.40;72.00;;;9.72;62.01;102117.81;5077855;28;20409;-81
2021/03/30 07:16:50;;;;;;;27.25;11.20;;;10.50;71.60;;;9.78;62.55;102106.38;5094167;28;20056;-81
2021/03/30 07:19:23;;;;;;;25.17;10.90;;;10.70;71.80;;;9.85;62.05;102114.00;5095006;28;20511;-81
2021/03/30 07:22:03;;;;;;;25.40;11.00;;;10.80;70.50;;;9.90;61.81;102109.88;5098858;28;20040;-81
2021/03/30 07:24:40;;;;;;;25.02;10.63;;;10.90;70.40;;;9.98;61.81;102111.88;5097934;28;20051;-81
2021/03/30 07:27:14;;;;;;;30.10;11.35;;;11.00;70.00;;;10.04;61.83;102108.59;5098633;28;20093;-81
2021/03/30 07:29:46;;;;;;;31.30;11.27;;;11.20;70.20;;;10.13;61.52;102109.59;5098147;28;20032;-81
2021/03/30 07:32:21;;;;;;;25.67;10.30;;;11.30;69.20;;;10.17;61.45;102111.88;5097864;28;20044;-80
2021/03/30 07:34:56;;;;;;;22.20;9.90;;;11.40;68.60;;;10.26;61.40;102120.19;5098358;28;20508;-81
2021/03/30 07:37:36;;;;;;;24.05;11.63;;;11.50;68.70;;;10.33;61.36;102116.78;5098287;28;20052;-80
2021/03/30 07:40:07;;;;;;;22.63;10.88;;;11.70;68.60;;;10.41;61.17;102113.34;5098977;28;20075;-80
2021/03/30 07:42:38;;;;;;;27.60;10.70;;;11.80;67.40;;;10.47;60.81;102109.19;5092395;28;20157;-80
2021/03/30 07:45:08;;;;;;;25.98;10.38;;;12.00;67.10;;;10.54;61.03;102113.91;5092152;28;20048;-80
2021/03/30 07:47:36;;;;;;;21.92;10.38;;;12.10;66.70;;;10.62;61.16;102110.44;5094076;28;20065;-80
2021/03/30 07:50:06;;;;;;;19.35;10.23;;;12.30;66.60;;;10.73;61.22;102109.44;5097461;28;20113;-80
2021/03/30 07:52:41;;;;;;;23.42;11.05;;;12.40;66.40;;;10.81;61.40;102109.53;5087516;28;20028;-80
2021/03/30 07:55:39;;;;;;;27.10;11.13;;;12.60;66.20;;;10.92;61.87;102122.16;5095517;28;20048;-80
2021/03/30 07:58:10;;;;;;;23.58;10.23;;;12.80;66.00;;;11.03;61.82;102111.06;5085296;28;20514;-80
2021/03/30 08:00:54;;;;;;;21.77;10.05;;;12.90;65.90;;;11.15;61.32;102117.19;5095975;28;20044;-80
2021/03/30 08:03:27;;;;;;;24.98;9.68;;;13.10;65.10;;;11.25;61.13;102112.59;5090921;28;20047;-80
2021/03/30 08:06:19;;;;;;;23.17;9.48;;;13.20;64.40;;;11.52;61.19;102110.88;5091781;28;20049;-80
2021/03/30 08:08:56;;;;;;;37.45;9.00;;;13.50;64.80;;;11.80;58.62;102105.41;5078821;28;20041;-81
2021/03/30 08:11:56;;;;;;;28.23;8.50;;;13.60;61.90;;;12.01;57.75;102102.41;5078611;28;20044;-80
2021/03/30 08:14:42;;;;;;;34.28;10.20;;;13.90;61.40;;;12.32;56.77;102100.16;5044259;28;20060;-80
2021/03/30 08:17:22;;;;;;;46.35;10.50;;;14.10;60.20;;;12.50;56.73;102098.25;5077820;28;20453;-80
2021/03/30 08:20:03;;;;;;;45.55;9.57;;;14.30;59.30;;;12.63;55.73;102110.66;5077975;28;20094;-80
2021/03/30 08:23:12;;;;;;;26.92;9.60;;;14.50;58.40;;;12.89;53.91;102100.59;5083340;28;20090;-80
2021/03/30 08:25:39;;;;;;;19.35;9.05;;;14.70;57.50;;;12.96;53.94;102102.69;5097793;28;20074;-80
2021/03/30 08:28:07;;;;;;;50.83;10.65;;;14.90;56.50;;;13.19;54.72;102101.09;5097948;28;20039;-81
2021/03/30 08:30:55;;;;;;;43.47;10.02;;;15.00;56.80;;;13.48;52.21;102108.13;5098898;28;20040;-81
2021/03/30 08:33:32;;;;;;;32.58;8.93;;;15.20;55.10;;;13.60;52.61;102100.47;5096094;28;20063;-81
2021/03/30 08:36:22;;;;;;;25.70;8.93;;;15.30;54.90;;;13.75;52.26;102103.44;5098702;28;20044;-81
2021/03/30 08:38:52;;;;;;;19.02;9.07;;;15.50;55.30;;;13.87;50.70;102099.34;5098434;28;20040;-82
2021/03/30 08:41:58;;;;;;;21.30;9.20;;;15.60;54.40;;;13.97;51.42;102101.94;5099513;28;20412;-81
2021/03/30 08:44:43;;;;;;;22.27;10.00;;;15.70;54.40;;;14.07;52.71;102102.66;5093235;28;20042;-80
2021/03/30 08:47:24;;;;;;;26.95;10.73;;;15.90;55.00;;;14.16;51.71;102096.13;5091233;28;20056;-82
2021/03/30 08:50:10;;;;;;;29.48;11.73;;;16.00;54.80;;;14.22;51.36;102100.06;5091546;28;20028;-80
2021/03/30 08:52:38;;;;;;;26.02;12.25;;;16.10;53.80;;;14.35;50.80;102100.44;5084709;28;20035;-80
2021/03/30 08:55:10;;;;;;;25.42;12.45;;;16.20;53.60;;;14.36;50.94;102102.16;5095282;28;20131;-80
2021/03/30 08:57:38;;;;;;;31.10;13.40;;;16.30;53.10;;;14.39;50.81;102099.09;5095365;28;20071;-80
2021/03/30 09:00:09;;;;;;;28.33;14.00;;;16.30;53.60;;;14.40;50.02;102103.50;5090028;28;20036;-80
2021/03/30 09:02:36;;;;;;;35.42;15.02;;;16.40;52.50;;;14.44;51.03;102099.41;5077261;28;20041;-80
2021/03/30 09:05:15;;;;;;;29.45;14.07;;;16.50;52.90;;;14.46;49.62;102102.81;5076947;28;20049;-81
2021/03/30 09:07:43;;;;;;;33.15;14.00;;;16.50;51.90;;;14.51;50.42;102099.59;5076977;28;20052;-81
2021/03/30 09:10:12;;;;;;;32.70;13.63;;;16.60;52.30;;;14.66;51.01;102097.91;5085554;28;20313;-81
2021/03/30 09:12:39;;;;;;;31.10;14.43;;;16.60;51.70;;;14.69;49.16;102096.69;5096519;28;20468;-81
2021/03/30 09:15:09;;;;;;;30.58;14.55;;;16.70;50.70;;;14.72;47.81;102095.50;5095217;28;20078;-80
2021/03/30 09:17:36;;;;;;;29.98;14.00;;;16.80;50.00;;;14.70;45.72;102098.41;5086097;28;20044;-81
2021/03/30 09:20:05;;;;;;;33.80;14.27;;;16.80;47.70;;;14.75;45.79;102095.97;5077197;28;20501;-81
2021/03/30 09:22:35;;;;;;;26.05;13.18;;;16.80;48.00;;;14.90;47.39;102096.13;5077013;28;20041;-81
2021/03/30 09:25:22;;;;;;;27.40;12.35;;;16.80;49.10;;;14.89;47.15;102096.31;5076881;28;20040;-80
2021/03/30 09:27:49;;;;;;;27.35;11.18;;;16.90;49.00;;;14.88;46.38;102102.84;5077520;28;20044;-81
2021/03/30 09:30:19;;;;;;;26.17;11.40;;;16.90;48.30;;;14.90;47.17;102093.41;5077789;28;20067;-80
2021/03/30 09:32:48;;;;;;;28.58;12.02;;;17.00;48.50;;;14.84;46.15;102094.94;5077043;28;20044;-80
2021/03/30 09:35:19;;;;;;;22.98;11.35;;;17.00;47.40;;;15.03;44.53;102090.97;5076953;28;20595;-81
2021/03/30 09:37:49;;;;;;;25.00;12.02;;;17.10;45.90;;;15.35;44.89;102091.06;5075235;28;20048;-81
2021/03/30 09:40:19;;;;;;;24.45;11.73;;;17.20;46.70;;;15.39;46.10;102078.69;5076860;28;20040;-80
2021/03/30 09:42:46;;;;;;;25.00;11.00;;;17.20;47.60;;;15.31;45.09;102089.69;5076398;28;20051;-80
2021/03/30 09:45:20;;;;;;;23.73;10.45;;;17.30;46.70;;;15.49;43.21;102075.72;5076430;28;20040;-80
2021/03/30 09:47:47;;;;;;;25.42;11.60;;;17.30;45.30;;;15.35;42.39;102080.94;5076093;28;20037;-80
2021/03/30 09:50:18;;;;;;;21.27;10.75;;;17.40;43.60;;;15.46;40.90;102082.44;5076954;28;20068;-80
2021/03/30 09:52:44;;;;;;;29.83;11.07;;;17.40;42.80;;;15.43;42.72;102082.78;5075505;28;20067;-80
2021/03/30 09:55:11;;;;;;;22.65;9.50;;;17.40;44.30;;;15.43;41.21;102082.78;5076719;28;20147;-80
2021/03/30 09:57:38;;;;;;;18.08;7.32;;;17.40;42.20;;;15.40;41.74;102088.59;5076463;28;20055;-80
2021/03/30 10:00:13;;;;;;;18.92;7.40;;;17.40;42.20;;;15.35;42.11;102080.94;5080114;28;20039;-80
2021/03/30 10:02:40;;;;;;;27.33;12.30;;;17.50;41.20;;;15.38;42.50;102080.59;5075634;28;20052;-80
2021/03/30 10:05:11;;;;;;;20.77;9.63;;;17.50;43.50;;;15.40;44.09;102089.50;5076600;28;20049;-80
2021/03/30 10:07:40;;;;;;;27.70;12.15;;;17.60;43.80;;;15.53;45.61;102086.16;5076245;28;20055;-81
2021/03/30 10:10:10;;;;;;;26.52;10.60;;;17.60;46.30;;;15.45;45.01;102086.19;5075571;28;20078;-80
2021/03/30 10:12:49;;;;;;;27.50;12.70;;;17.60;44.30;;;15.58;43.82;102086.47;5076632;28;20059;-80
2021/03/30 10:15:16;;;;;;;28.80;12.73;;;17.60;45.10;;;15.50;44.60;102078.28;5075712;28;20180;-80
2021/03/30 10:17:43;;;;;;;26.58;12.20;;;17.60;45.00;;;15.55;42.84;102080.50;5076116;28;20048;-80
2021/03/30 10:20:14;;;;;;;24.83;11.80;;;17.70;43.50;;;15.51;43.16;102082.72;5076210;28;20040;-80
2021/03/30 10:22:48;;;;;;;23.70;11.55;;;17.70;43.70;;;15.48;43.42;102080.38;5075855;28;20059;-81
2021/03/30 10:25:18;;;;;;;30.15;12.73;;;17.70;43.20;;;15.46;41.96;102074.19;5075867;28;20044;-80
2021/03/30 10:27:51;;;;;;;26.42;12.07;;;17.60;42.30;;;15.43;40.90;102078.13;5076195;28;20071;-80
2021/03/30 10:30:29;;;;;;;26.35;12.45;;;17.60;42.20;;;15.36;41.48;102076.28;5075849;28;20048;-80